Portada
METAR-TAF:

METAR-TAF

Aeroports :

Bar Harbor, Maine, Estats Units d'Amèrica

latitud: 44-27N, longitud: 068-22W, altitud: 26 m

Observació

L'informe es va fer fa 1 hora i 14 minuts, a les 12:56 UTC
Vent 8 kt del Sud/Sud-Oest
Temperatura 14°C
Humitat 94%
Pressió 1013 hPa
Visibilitat: 16.1 km
Núvols disperses a una alçada de 9000 ft

METAR: KBHB 221256Z AUTO 20008KT 10SM SCT090 14/13 A2991 RMK AO2 SLP129 T01440128

Hora: 10:10 (14:10 UTC)

Pronòstic

L'informe es va fer fa 2 hores i 50 minuts, a les 11:20 UTC
Pronòstic vàlid del 22 a les 12 UTC al 23 a les 12 UTC
Vent 6 kt del Sud/Sud-Oest
Visibilitat: 10 km
Núvols disperses a una alçada de 11000 ft
Cel ennuvolat a una alçada de 13000 ft
A partir de les 23 a les 0700 UTC
Vent 6 kt del Sud
Visibilitat: 10 km
Núvols disperses a una alçada de 200 ft

TAF: KBHB 221120Z 2212/2312 20006KT P6SM SCT110 BKN130 FM230700 19006KT P6SM SCT002

Observacions i pronòstics meteorològics de més de 4000 aeroports (METAR i TAF).

Les estacions disponibles són els punts grocs i vermells al mapa.

Posi el ratolí al punt desitjat per veure el nom de l'estació.

Feu clic per veure les observacions i els pronòstics meteorològics.

Per canviar el mapa: feu clic els botons verds amb una creu de color negre per apropar; al botó verd amb un guió per allunyar la imatge; o en les fletxes verdes per a mapes adjacents.


METAR-TAF: